createdAt,value
2018-09-21T00:01:54.064Z,95.90
2018-09-21T00:04:22.476Z,96.40
2018-09-21T00:06:50.802Z,96.10
2018-09-21T00:09:19.091Z,96.20
2018-09-21T00:11:47.367Z,96.30
2018-09-21T00:14:15.856Z,96.20
2018-09-21T00:16:44.163Z,96.20
2018-09-21T00:19:12.514Z,96.20
2018-09-21T00:21:40.819Z,96.50
2018-09-21T00:24:09.126Z,96.60
2018-09-21T00:26:37.492Z,96.60
2018-09-21T00:29:08.083Z,96.70
2018-09-21T00:31:36.745Z,96.70
2018-09-21T00:34:05.073Z,96.80
2018-09-21T00:36:33.406Z,96.90
2018-09-21T00:39:01.768Z,97.00
2018-09-21T00:41:30.265Z,97.10
2018-09-21T00:43:58.564Z,97.20
2018-09-21T00:46:26.895Z,97.20
2018-09-21T00:48:55.174Z,97.30
2018-09-21T00:51:23.473Z,97.40
2018-09-21T00:53:51.760Z,98.00
2018-09-21T00:56:20.056Z,97.80
2018-09-21T00:58:48.374Z,97.80
2018-09-21T01:01:16.708Z,97.90
2018-09-21T01:03:45.129Z,98.00
2018-09-21T01:06:13.529Z,98.40
2018-09-21T01:08:41.857Z,98.20
2018-09-21T01:11:10.174Z,98.20
2018-09-21T01:13:38.477Z,98.30
2018-09-21T01:16:06.747Z,98.40
2018-09-21T01:18:35.058Z,98.40
2018-09-21T01:21:03.364Z,98.50
2018-09-21T01:23:31.712Z,98.50
2018-09-21T01:26:00.046Z,98.70
2018-09-21T01:28:28.406Z,98.70
2018-09-21T01:30:56.758Z,98.70
2018-09-21T01:33:25.069Z,98.90
2018-09-21T01:35:53.490Z,99.00
2018-09-21T01:38:21.798Z,99.10
2018-09-21T01:40:50.181Z,99.20
2018-09-21T01:43:18.594Z,99.20
2018-09-21T01:45:46.954Z,99.30
2018-09-21T01:48:15.236Z,99.20
2018-09-21T01:50:43.536Z,99.20
2018-09-21T01:53:11.887Z,99.20
2018-09-21T01:55:40.224Z,99.20
2018-09-21T01:58:08.617Z,99.60
2018-09-21T02:00:36.996Z,99.20
2018-09-21T02:03:05.298Z,99.20
2018-09-21T02:05:33.623Z,99.30
2018-09-21T02:08:02.772Z,99.30
2018-09-21T02:10:31.168Z,99.30
2018-09-21T02:12:59.524Z,99.30
2018-09-21T02:15:28.153Z,99.30
2018-09-21T02:17:56.480Z,99.40
2018-09-21T02:20:24.779Z,99.40
2018-09-21T02:22:53.178Z,99.40
2018-09-21T02:25:21.568Z,99.40
2018-09-21T02:27:49.916Z,99.40
2018-09-21T02:30:18.168Z,99.40
2018-09-21T02:32:46.702Z,99.50
2018-09-21T02:35:14.970Z,99.50
2018-09-21T02:37:43.262Z,99.40
2018-09-21T02:40:11.614Z,99.40
2018-09-21T02:42:39.899Z,99.50
2018-09-21T02:45:08.584Z,99.50
2018-09-21T02:47:36.908Z,99.50
2018-09-21T02:50:05.283Z,99.50
2018-09-21T02:52:33.668Z,99.50
2018-09-21T02:55:01.961Z,99.60
2018-09-21T02:57:30.374Z,99.50
2018-09-21T02:59:58.682Z,99.40
2018-09-21T03:02:27.185Z,99.20
2018-09-21T03:04:56.547Z,99.30
2018-09-21T03:07:25.936Z,99.10
2018-09-21T03:09:54.964Z,99.10
2018-09-21T03:12:23.253Z,98.90
2018-09-21T03:14:51.627Z,99.00
2018-09-21T03:17:19.934Z,99.00
2018-09-21T03:19:48.225Z,99.00
2018-09-21T03:22:16.528Z,99.00
2018-09-21T03:24:44.822Z,98.90
2018-09-21T03:27:13.100Z,98.90
2018-09-21T03:29:41.419Z,99.00
2018-09-21T03:32:09.730Z,99.00
2018-09-21T03:34:38.046Z,99.40
2018-09-21T03:37:06.476Z,98.90
2018-09-21T03:39:34.828Z,99.10
2018-09-21T03:42:03.130Z,99.20
2018-09-21T03:44:31.589Z,99.20
2018-09-21T03:46:59.879Z,99.20
2018-09-21T03:49:28.186Z,99.30
2018-09-21T03:51:56.548Z,99.20
2018-09-21T03:54:24.849Z,99.10
2018-09-21T03:56:53.118Z,99.10
2018-09-21T03:59:21.562Z,99.20
2018-09-21T04:01:49.902Z,99.00
2018-09-21T04:04:18.215Z,99.00
2018-09-21T04:06:46.798Z,98.70
2018-09-21T04:09:15.092Z,98.70
2018-09-21T04:11:43.384Z,98.60
2018-09-21T04:14:11.745Z,98.60
2018-09-21T04:16:40.076Z,98.50
2018-09-21T04:19:08.556Z,98.30
2018-09-21T04:21:37.025Z,98.20
2018-09-21T04:24:05.394Z,98.20
2018-09-21T04:26:33.713Z,98.10
2018-09-21T04:29:01.995Z,98.10
2018-09-21T04:31:30.324Z,97.80
2018-09-21T04:33:58.656Z,97.60
2018-09-21T04:36:26.985Z,97.30
2018-09-21T04:38:55.344Z,97.00
2018-09-21T04:41:23.885Z,97.10
2018-09-21T04:43:52.161Z,96.60
2018-09-21T04:46:20.445Z,96.40
2018-09-21T04:48:48.732Z,96.30
2018-09-21T04:51:17.047Z,96.20
2018-09-21T04:53:45.403Z,96.20
2018-09-21T04:56:13.703Z,96.50
2018-09-21T04:58:42.410Z,96.10
2018-09-21T05:01:10.786Z,96.10
2018-09-21T05:03:39.104Z,96.20
2018-09-21T05:06:07.463Z,96.20
2018-09-21T05:08:35.786Z,96.40
2018-09-21T05:11:04.148Z,96.40
2018-09-21T05:13:32.517Z,96.50
2018-09-21T05:16:00.789Z,96.90
2018-09-21T05:18:29.372Z,96.80
2018-09-21T05:20:57.765Z,96.80
2018-09-21T05:23:26.282Z,96.70
2018-09-21T05:25:54.764Z,96.60
2018-09-21T05:28:23.174Z,96.60
2018-09-21T05:30:51.499Z,96.60
2018-09-21T05:33:19.809Z,96.60
2018-09-21T05:35:48.179Z,96.60
2018-09-21T05:38:17.099Z,96.60
2018-09-21T05:40:45.395Z,96.50
2018-09-21T05:43:13.725Z,96.50
2018-09-21T05:45:42.101Z,96.50
2018-09-21T05:48:10.441Z,96.50
2018-09-21T05:50:38.775Z,96.70
2018-09-21T05:53:07.655Z,96.80
2018-09-21T05:55:36.007Z,96.90
2018-09-21T05:58:04.298Z,97.00
2018-09-21T06:00:32.595Z,97.20
2018-09-21T06:03:01.006Z,97.20
2018-09-21T06:05:29.461Z,97.30
2018-09-21T06:07:57.775Z,97.40
2018-09-21T06:10:26.090Z,97.60
2018-09-21T06:12:54.531Z,97.70
2018-09-21T06:15:22.839Z,97.70
2018-09-21T06:17:51.281Z,97.80
2018-09-21T06:20:19.914Z,97.90
2018-09-21T06:22:48.230Z,97.90
2018-09-21T06:25:16.579Z,98.00
2018-09-21T06:27:44.898Z,98.00
2018-09-21T06:30:13.246Z,98.00
2018-09-21T06:32:41.593Z,98.00
2018-09-21T06:35:11.466Z,98.00
2018-09-21T06:37:39.785Z,98.10
2018-09-21T06:40:08.194Z,98.00
2018-09-21T06:42:36.550Z,98.10
2018-09-21T06:45:05.048Z,98.00
2018-09-21T06:47:33.332Z,98.10
2018-09-21T06:50:01.688Z,98.00
2018-09-21T06:52:30.034Z,97.80
2018-09-21T06:54:58.506Z,97.70
2018-09-21T06:57:26.895Z,97.70
2018-09-21T06:59:55.512Z,97.70
2018-09-21T07:02:23.843Z,97.40
2018-09-21T07:04:52.286Z,97.30
2018-09-21T07:07:20.601Z,97.20
2018-09-21T07:09:49.043Z,97.10
2018-09-21T07:12:17.345Z,96.80
2018-09-21T07:14:45.697Z,96.80
2018-09-21T07:17:14.049Z,96.80
2018-09-21T07:19:42.398Z,96.60
2018-09-21T07:22:10.700Z,96.50
2018-09-21T07:24:39.015Z,96.60
2018-09-21T07:27:07.305Z,96.00
2018-09-21T07:29:35.721Z,95.80
2018-09-21T07:32:04.072Z,95.70
2018-09-21T07:34:32.550Z,95.60
2018-09-21T07:37:00.933Z,95.50
2018-09-21T07:39:29.592Z,95.90
2018-09-21T07:41:57.906Z,95.40
2018-09-21T07:44:26.293Z,95.20
2018-09-21T07:46:54.666Z,95.00
2018-09-21T07:49:22.958Z,94.80
2018-09-21T07:51:51.366Z,94.50
2018-09-21T07:54:19.727Z,94.30
2018-09-21T07:56:48.004Z,94.20
2018-09-21T07:59:16.366Z,93.70
2018-09-21T08:01:44.670Z,93.90
2018-09-21T08:04:13.038Z,93.70
2018-09-21T08:06:41.466Z,93.10
2018-09-21T08:09:10.934Z,93.10
2018-09-21T08:11:39.301Z,93.30
2018-09-21T08:14:08.194Z,93.20
2018-09-21T08:16:37.454Z,93.30
2018-09-21T08:19:06.246Z,93.40
2018-09-21T08:21:34.591Z,93.40
2018-09-21T08:24:03.550Z,93.30
2018-09-21T08:26:31.998Z,93.30
2018-09-21T08:29:00.566Z,93.30
2018-09-21T08:31:29.011Z,93.50
2018-09-21T08:33:57.438Z,93.50
2018-09-21T08:36:26.002Z,93.70
2018-09-21T08:38:54.880Z,93.60
2018-09-21T08:41:24.376Z,93.60
2018-09-21T08:43:53.110Z,93.60
2018-09-21T08:46:21.470Z,93.50
2018-09-21T08:48:49.774Z,93.20
2018-09-21T08:51:18.115Z,93.30
2018-09-21T08:53:46.542Z,93.30
2018-09-21T08:56:14.947Z,93.60
2018-09-21T08:58:43.201Z,94.00
2018-09-21T09:01:11.538Z,94.60
2018-09-21T09:03:39.839Z,95.00
2018-09-21T09:06:08.557Z,94.80
2018-09-21T09:08:36.899Z,95.10
2018-09-21T09:11:05.527Z,96.20
2018-09-21T09:13:33.829Z,97.30
2018-09-21T09:16:02.113Z,99.00
2018-09-21T09:18:30.393Z,99.90
2018-09-21T09:20:58.717Z,99.90
2018-09-21T09:23:26.997Z,99.90
2018-09-21T09:25:55.297Z,99.90
2018-09-21T09:28:23.653Z,99.90
2018-09-21T09:30:51.995Z,99.90
2018-09-21T09:33:20.445Z,99.90
2018-09-21T09:35:48.841Z,99.90
2018-09-21T09:38:17.149Z,99.90
2018-09-21T09:40:45.880Z,99.90
2018-09-21T09:43:14.223Z,99.90
2018-09-21T09:45:42.545Z,99.90
2018-09-21T09:48:10.851Z,99.90
2018-09-21T09:50:39.335Z,99.90
2018-09-21T09:53:07.625Z,99.90
2018-09-21T09:55:36.032Z,99.90
2018-09-21T09:58:04.345Z,99.90
2018-09-21T10:00:37.965Z,99.90
2018-09-21T10:03:06.249Z,99.90
2018-09-21T10:05:34.668Z,99.90
2018-09-21T10:08:02.993Z,99.90
2018-09-21T10:10:31.448Z,99.90
2018-09-21T10:12:59.835Z,99.90
2018-09-21T10:15:28.305Z,99.90
2018-09-21T10:17:56.769Z,99.90
2018-09-21T10:20:25.075Z,99.90
2018-09-21T10:22:53.445Z,99.90
2018-09-21T10:25:21.757Z,99.90
2018-09-21T10:27:50.241Z,99.90
2018-09-21T10:30:18.393Z,99.90
2018-09-21T10:32:46.737Z,99.90
2018-09-21T10:35:15.031Z,99.90
2018-09-21T10:37:43.399Z,99.90
2018-09-21T10:40:11.995Z,99.90
2018-09-21T10:42:40.420Z,99.90
2018-09-21T10:45:08.751Z,99.90
2018-09-21T10:47:37.145Z,99.90
2018-09-21T10:50:05.505Z,99.90
2018-09-21T10:52:33.865Z,99.90
2018-09-21T10:55:02.229Z,99.90
2018-09-21T10:57:30.554Z,99.90
2018-09-21T10:59:58.941Z,99.90
2018-09-21T11:02:27.229Z,99.90
2018-09-21T11:04:55.981Z,99.90
2018-09-21T11:07:24.998Z,99.90
2018-09-21T11:09:53.286Z,99.90
2018-09-21T11:12:21.578Z,99.90
2018-09-21T11:14:50.029Z,99.50
2018-09-21T11:17:18.301Z,99.90
2018-09-21T11:19:46.622Z,99.90
2018-09-21T11:22:14.956Z,99.30
2018-09-21T11:24:43.399Z,99.90
2018-09-21T11:27:11.673Z,99.60
2018-09-21T11:29:40.001Z,99.30
2018-09-21T11:32:08.307Z,99.70
2018-09-21T11:34:36.641Z,99.60
2018-09-21T11:37:05.037Z,99.50
2018-09-21T11:39:33.420Z,99.50
2018-09-21T11:42:01.903Z,98.60
2018-09-21T11:44:30.255Z,99.40
2018-09-21T11:46:58.677Z,98.50
2018-09-21T11:49:27.007Z,98.60
2018-09-21T11:51:55.445Z,98.50
2018-09-21T11:54:23.765Z,98.30
2018-09-21T11:56:52.085Z,98.40
2018-09-21T11:59:20.490Z,98.00
2018-09-21T12:01:48.837Z,97.80
2018-09-21T12:04:17.088Z,97.30
2018-09-21T12:06:45.449Z,97.50
2018-09-21T12:09:13.772Z,97.20
2018-09-21T12:11:42.118Z,97.60
2018-09-21T12:14:10.426Z,97.00
2018-09-21T12:16:38.950Z,97.30
2018-09-21T12:19:07.346Z,97.20
2018-09-21T12:21:35.691Z,97.10
2018-09-21T12:24:03.998Z,98.00
2018-09-21T12:26:32.318Z,97.90
2018-09-21T12:29:00.702Z,98.00
2018-09-21T12:31:29.033Z,99.00
2018-09-21T12:33:57.414Z,99.40
2018-09-21T12:36:25.875Z,99.90
2018-09-21T12:38:54.162Z,99.90
2018-09-21T12:41:22.850Z,99.90
2018-09-21T12:43:51.146Z,99.90
2018-09-21T12:46:28.214Z,99.90
2018-09-21T12:49:01.917Z,99.90
2018-09-21T12:51:30.610Z,98.90
2018-09-21T12:53:58.973Z,97.40
2018-09-21T12:56:27.355Z,97.20
2018-09-21T12:58:55.734Z,96.90
2018-09-21T13:01:24.044Z,97.10
2018-09-21T13:03:52.351Z,97.70
2018-09-21T13:06:20.714Z,97.70
2018-09-21T13:08:48.960Z,97.50
2018-09-21T13:11:17.322Z,97.80
2018-09-21T13:13:45.630Z,97.80
2018-09-21T13:16:13.929Z,98.10
2018-09-21T13:18:42.252Z,97.30
2018-09-21T13:21:10.562Z,97.10
2018-09-21T13:23:38.850Z,96.70
2018-09-21T13:26:07.190Z,96.80
2018-09-21T13:28:35.894Z,96.70
2018-09-21T13:31:04.226Z,97.00
2018-09-21T13:33:32.603Z,97.20
2018-09-21T13:36:00.942Z,96.80
2018-09-21T13:38:29.269Z,96.10
2018-09-21T13:40:59.348Z,95.90
2018-09-21T13:43:27.858Z,95.90
2018-09-21T13:45:56.937Z,95.10
2018-09-21T13:48:25.247Z,93.70
2018-09-21T13:50:53.618Z,94.10
2018-09-21T13:53:21.952Z,93.80
2018-09-21T13:55:50.472Z,95.10
2018-09-21T13:58:18.830Z,94.50
2018-09-21T14:00:48.134Z,94.50
2018-09-21T14:03:16.692Z,92.60
2018-09-21T14:05:45.296Z,92.40
2018-09-21T14:08:13.670Z,91.60
2018-09-21T14:10:41.962Z,89.30
2018-09-21T14:13:10.462Z,87.10
2018-09-21T14:15:38.807Z,86.50
2018-09-21T14:18:07.227Z,86.70
2018-09-21T14:20:35.568Z,88.80
2018-09-21T14:23:03.888Z,85.30
2018-09-21T14:25:33.006Z,84.10
2018-09-21T14:28:01.766Z,84.50
2018-09-21T14:30:30.041Z,84.60
2018-09-21T14:32:58.407Z,85.60
2018-09-21T14:35:26.716Z,83.30
2018-09-21T14:37:55.269Z,84.70
2018-09-21T14:40:23.557Z,86.00
2018-09-21T14:42:51.921Z,86.40
2018-09-21T14:45:20.406Z,87.70
2018-09-21T14:47:48.770Z,88.00
2018-09-21T14:50:17.586Z,87.30
2018-09-21T14:52:45.960Z,86.90
2018-09-21T14:55:14.253Z,84.90
2018-09-21T14:57:42.568Z,85.20
2018-09-21T15:00:10.921Z,84.20
2018-09-21T15:02:39.235Z,84.50
2018-09-21T15:05:07.546Z,84.70
2018-09-21T15:07:35.838Z,84.70
2018-09-21T15:10:04.410Z,85.10
2018-09-21T15:12:32.978Z,85.10
2018-09-21T15:15:01.548Z,85.70
2018-09-21T15:17:29.867Z,85.10
2018-09-21T15:19:58.209Z,84.60
2018-09-21T15:22:26.584Z,84.10
2018-09-21T15:24:55.512Z,83.50
2018-09-21T15:27:24.223Z,83.30
2018-09-21T15:29:52.569Z,83.60
2018-09-21T15:32:20.904Z,84.60
2018-09-21T15:34:49.250Z,80.90
2018-09-21T15:37:17.752Z,80.70
2018-09-21T15:39:46.111Z,79.30
2018-09-21T15:42:14.455Z,78.00
2018-09-21T15:44:42.858Z,73.40
2018-09-21T15:47:11.306Z,74.10
2018-09-21T15:49:39.638Z,71.10
2018-09-21T15:52:08.054Z,69.10
2018-09-21T15:54:36.730Z,73.60
2018-09-21T15:57:06.581Z,68.20
2018-09-21T15:59:35.060Z,68.90
2018-09-21T16:02:03.456Z,71.40
2018-09-21T16:04:31.813Z,70.80
2018-09-21T16:07:00.396Z,69.90
2018-09-21T16:09:28.686Z,70.10
2018-09-21T16:11:57.170Z,72.40
2018-09-21T16:14:25.522Z,72.40
2018-09-21T16:16:53.952Z,74.10
2018-09-21T16:19:22.541Z,71.90
2018-09-21T16:21:50.990Z,72.00
2018-09-21T16:24:19.712Z,72.30
2018-09-21T16:26:48.252Z,72.20
2018-09-21T16:29:16.792Z,70.50
2018-09-21T16:31:45.180Z,71.10
2018-09-21T16:34:13.567Z,71.00
2018-09-21T16:36:42.066Z,71.80
2018-09-21T16:39:11.796Z,71.30
2018-09-21T16:41:40.324Z,71.70
2018-09-21T16:44:09.112Z,72.40
2018-09-21T16:46:37.741Z,75.20
2018-09-21T16:49:06.289Z,74.20
2018-09-21T16:51:37.518Z,74.90
2018-09-21T16:54:06.030Z,74.20
2018-09-21T16:56:34.390Z,74.40
2018-09-21T16:59:02.883Z,76.40
2018-09-21T17:01:31.402Z,75.60
2018-09-21T17:04:00.431Z,76.30
2018-09-21T17:06:28.910Z,80.00
2018-09-21T17:08:57.214Z,76.10
2018-09-21T17:11:25.752Z,75.50
2018-09-21T17:13:54.013Z,79.50
2018-09-21T17:16:22.352Z,78.60
2018-09-21T17:18:50.720Z,73.10
2018-09-21T17:21:19.448Z,75.20
2018-09-21T17:23:47.974Z,75.50
2018-09-21T17:26:16.512Z,75.60
2018-09-21T17:28:44.870Z,76.00
2018-09-21T17:31:13.198Z,75.20
2018-09-21T17:33:41.522Z,73.50
2018-09-21T17:36:09.888Z,74.40
2018-09-21T17:38:38.426Z,74.10
2018-09-21T17:41:06.846Z,66.70
2018-09-21T17:43:35.312Z,64.40
2018-09-21T17:46:04.038Z,64.70
2018-09-21T17:48:33.892Z,65.30
2018-09-21T17:51:02.262Z,66.20
2018-09-21T17:53:30.666Z,66.90
2018-09-21T17:55:59.474Z,67.60
2018-09-21T17:58:27.763Z,68.80
2018-09-21T18:00:56.295Z,69.90
2018-09-21T18:03:25.168Z,70.40
2018-09-21T18:05:54.572Z,71.30
2018-09-21T18:08:22.888Z,71.90
2018-09-21T18:10:51.185Z,72.20
2018-09-21T18:13:19.960Z,72.90
2018-09-21T18:15:48.524Z,73.50
2018-09-21T18:18:16.921Z,74.20
2018-09-21T18:20:45.206Z,74.80
2018-09-21T18:23:13.564Z,75.80
2018-09-21T18:25:42.104Z,76.10
2018-09-21T18:28:10.394Z,76.70
2018-09-21T18:30:38.888Z,76.90
2018-09-21T18:33:07.312Z,77.30
2018-09-21T18:35:35.614Z,77.70
2018-09-21T18:38:03.950Z,77.90
2018-09-21T18:40:32.360Z,78.20
2018-09-21T18:43:00.642Z,78.40
2018-09-21T18:45:29.362Z,79.00
2018-09-21T18:47:57.664Z,79.30
2018-09-21T18:50:26.595Z,79.40
2018-09-21T18:52:54.944Z,79.30
2018-09-21T18:55:23.284Z,80.10
2018-09-21T18:57:51.596Z,81.30
2018-09-21T19:00:20.046Z,80.70
2018-09-21T19:02:48.421Z,80.50
2018-09-21T19:05:16.774Z,81.40
2018-09-21T19:07:45.294Z,82.00
2018-09-21T19:10:13.862Z,81.90
2018-09-21T19:12:42.186Z,81.40
2018-09-21T19:15:10.910Z,81.20
2018-09-21T19:17:39.519Z,81.20
2018-09-21T19:20:12.295Z,79.70
2018-09-21T19:22:40.685Z,79.60
2018-09-21T19:25:09.489Z,79.40
2018-09-21T19:27:38.871Z,79.70
2018-09-21T19:30:10.492Z,80.10
2018-09-21T19:32:38.827Z,80.00
2018-09-21T19:35:07.520Z,79.80
2018-09-21T19:37:35.809Z,80.10
2018-09-21T19:40:09.448Z,79.50
2018-09-21T19:42:46.894Z,79.10
2018-09-21T19:45:15.787Z,78.70
2018-09-21T19:47:44.207Z,78.30
2018-09-21T19:50:23.864Z,78.70
2018-09-21T19:52:56.973Z,78.60
2018-09-21T19:55:28.751Z,78.70
2018-09-21T19:57:57.208Z,79.10
2018-09-21T20:00:25.523Z,79.30
2018-09-21T20:02:53.850Z,79.40
2018-09-21T20:05:22.580Z,79.80
2018-09-21T20:07:51.198Z,79.90
2018-09-21T20:10:19.901Z,80.30
2018-09-21T20:12:48.516Z,80.30
2018-09-21T20:15:17.085Z,80.70
2018-09-21T20:17:45.882Z,81.00
2018-09-21T20:20:14.833Z,81.70
2018-09-21T20:22:43.590Z,81.70
2018-09-21T20:25:12.757Z,82.20
2018-09-21T20:27:41.090Z,82.50
2018-09-21T20:30:15.625Z,83.30
2018-09-21T20:32:49.373Z,83.60
2018-09-21T20:35:18.213Z,83.80
2018-09-21T20:37:46.594Z,84.30
2018-09-21T20:40:15.073Z,84.90
2018-09-21T20:42:43.924Z,85.20
2018-09-21T20:45:12.548Z,85.90
2018-09-21T20:47:42.074Z,86.20
2018-09-21T20:50:10.425Z,86.50
2018-09-21T20:52:38.846Z,86.90
2018-09-21T20:55:07.375Z,87.10
2018-09-21T20:57:35.674Z,87.40
2018-09-21T21:00:04.058Z,87.40
2018-09-21T21:02:32.452Z,88.00
2018-09-21T21:05:00.934Z,88.00
2018-09-21T21:07:29.599Z,88.30
2018-09-21T21:09:57.965Z,89.40
2018-09-21T21:12:26.253Z,89.00
2018-09-21T21:14:54.617Z,89.10
2018-09-21T21:17:23.182Z,89.40
2018-09-21T21:19:51.525Z,89.90
2018-09-21T21:22:19.953Z,90.10
2018-09-21T21:24:48.323Z,90.10
2018-09-21T21:27:16.663Z,91.10
2018-09-21T21:29:45.153Z,90.10
2018-09-21T21:32:13.459Z,90.30
2018-09-21T21:34:42.029Z,90.40
2018-09-21T21:37:10.358Z,90.40
2018-09-21T21:39:38.863Z,90.60
2018-09-21T21:42:07.609Z,90.70
2018-09-21T21:44:37.094Z,90.80
2018-09-21T21:47:05.718Z,90.90
2018-09-21T21:49:33.999Z,91.00
2018-09-21T21:52:02.323Z,91.00
2018-09-21T21:54:30.720Z,91.20
2018-09-21T21:56:59.365Z,91.30
2018-09-21T21:59:27.960Z,91.40
2018-09-21T22:01:59.494Z,91.40
2018-09-21T22:04:27.842Z,91.60
2018-09-21T22:06:58.645Z,91.70
2018-09-21T22:09:26.950Z,91.80
2018-09-21T22:12:00.532Z,91.80
2018-09-21T22:14:28.856Z,92.00
2018-09-21T22:16:57.230Z,92.20
2018-09-21T22:19:25.526Z,92.30
2018-09-21T22:21:53.922Z,92.40
2018-09-21T22:24:22.236Z,92.50
2018-09-21T22:26:50.547Z,92.50
2018-09-21T22:29:18.841Z,92.60
2018-09-21T22:31:47.154Z,92.80
2018-09-21T22:34:15.477Z,92.90
2018-09-21T22:36:43.785Z,92.80
2018-09-21T22:39:12.092Z,92.90
2018-09-21T22:41:40.407Z,93.00
2018-09-21T22:44:08.689Z,93.00
2018-09-21T22:46:36.989Z,93.00
2018-09-21T22:49:14.747Z,93.10
2018-09-21T22:51:43.040Z,93.20
2018-09-21T22:54:11.361Z,93.30
2018-09-21T22:56:39.692Z,93.20
2018-09-21T22:59:07.973Z,93.30
2018-09-21T23:01:36.378Z,93.40
2018-09-21T23:04:05.215Z,93.40
2018-09-21T23:06:33.571Z,93.40
2018-09-21T23:09:01.939Z,93.50
2018-09-21T23:11:30.224Z,93.50
2018-09-21T23:13:58.553Z,93.60
2018-09-21T23:16:26.866Z,94.00
2018-09-21T23:18:55.160Z,93.70
2018-09-21T23:21:23.448Z,93.80
2018-09-21T23:23:51.753Z,93.90
2018-09-21T23:26:20.079Z,93.90
2018-09-21T23:28:48.390Z,94.10
2018-09-21T23:31:16.697Z,94.10
2018-09-21T23:33:45.071Z,94.30
2018-09-21T23:36:13.409Z,94.30
2018-09-21T23:38:41.704Z,94.50
2018-09-21T23:41:10.072Z,94.90
2018-09-21T23:43:38.344Z,94.70
2018-09-21T23:46:06.752Z,94.80
2018-09-21T23:48:35.186Z,95.00
2018-09-21T23:51:03.526Z,95.00
2018-09-21T23:53:31.809Z,95.20
2018-09-21T23:56:00.129Z,95.40
2018-09-21T23:58:28.412Z,95.40
